createdAt,value
2018-12-05T00:02:10.750Z,101827.12
2018-12-05T00:04:39.265Z,101819.20
2018-12-05T00:07:07.772Z,101821.91
2018-12-05T00:09:36.378Z,101821.52
2018-12-05T00:12:04.897Z,101815.96
2018-12-05T00:14:33.501Z,101821.49
2018-12-05T00:17:01.988Z,101816.12
2018-12-05T00:19:30.478Z,101821.43
2018-12-05T00:21:58.976Z,101828.55
2018-12-05T00:24:27.457Z,101833.23
2018-12-05T00:26:55.995Z,101828.41
2018-12-05T00:29:24.509Z,101833.83
2018-12-05T00:31:53.056Z,101830.37
2018-12-05T00:34:21.567Z,101823.20
2018-12-05T00:36:50.201Z,101827.92
2018-12-05T00:39:18.714Z,101824.29
2018-12-05T00:41:47.269Z,101827.25
2018-12-05T00:44:15.752Z,101822.84
2018-12-05T00:46:44.284Z,101819.04
2018-12-05T00:49:12.976Z,101827.95
2018-12-05T00:51:41.475Z,101824.03
2018-12-05T00:54:10.131Z,101828.51
2018-12-05T00:56:38.684Z,101824.31
2018-12-05T00:59:07.402Z,101819.45
2018-12-05T01:01:36.208Z,101818.95
2018-12-05T01:04:04.823Z,101822.23
2018-12-05T01:06:33.413Z,101822.48
2018-12-05T01:09:01.969Z,101817.13
2018-12-05T01:11:30.489Z,101820.44
2018-12-05T01:13:59.017Z,101814.36
2018-12-05T01:16:27.539Z,101814.31
2018-12-05T01:18:56.092Z,101815.72
2018-12-05T01:21:24.561Z,101809.56
2018-12-05T01:23:53.173Z,101818.95
2018-12-05T01:26:21.861Z,101821.52
2018-12-05T01:28:50.315Z,101827.42
2018-12-05T01:31:18.822Z,101822.95
2018-12-05T01:33:47.340Z,101820.84
2018-12-05T01:36:15.900Z,101822.03
2018-12-05T01:38:44.479Z,101814.56
2018-12-05T01:41:13.018Z,101821.24
2018-12-05T01:43:47.384Z,101816.44
2018-12-05T01:46:16.023Z,101812.17
2018-12-05T01:48:44.617Z,101813.42
2018-12-05T01:51:13.277Z,101813.98
2018-12-05T01:53:41.802Z,101814.48
2018-12-05T01:56:10.314Z,101821.34
2018-12-05T01:58:38.951Z,101817.73
2018-12-05T02:01:08.357Z,101819.26
2018-12-05T02:03:36.910Z,101815.00
2018-12-05T02:06:05.565Z,101811.44
2018-12-05T02:08:34.220Z,101814.67
2018-12-05T02:11:02.744Z,101814.38
2018-12-05T02:13:31.354Z,101808.93
2018-12-05T02:15:59.823Z,101813.05
2018-12-05T02:18:28.405Z,101809.98
2018-12-05T02:20:56.986Z,101812.21
2018-12-05T02:23:25.557Z,101811.69
2018-12-05T02:25:54.092Z,101811.55
2018-12-05T02:28:22.662Z,101801.17
2018-12-05T02:30:51.160Z,101801.95
2018-12-05T02:33:19.724Z,101795.38
2018-12-05T02:35:48.251Z,101799.03
2018-12-05T02:38:16.840Z,101792.16
2018-12-05T02:40:45.548Z,101791.99
2018-12-05T02:43:14.098Z,101791.42
2018-12-05T02:45:42.654Z,101787.03
2018-12-05T02:48:11.292Z,101791.78
2018-12-05T02:50:39.794Z,101795.69
2018-12-05T02:53:08.374Z,101790.69
2018-12-05T02:55:36.963Z,101792.10
2018-12-05T02:58:05.549Z,101791.53
2018-12-05T03:00:40.250Z,101786.85
2018-12-05T03:03:08.904Z,101787.88
2018-12-05T03:05:37.642Z,101786.33
2018-12-05T03:08:06.145Z,101786.95
2018-12-05T03:10:34.733Z,101789.28
2018-12-05T03:13:03.274Z,101786.95
2018-12-05T03:15:31.758Z,101789.50
2018-12-05T03:18:00.356Z,101787.39
2018-12-05T03:20:28.971Z,101780.31
2018-12-05T03:22:57.511Z,101776.52
2018-12-05T03:25:26.013Z,101773.60
2018-12-05T03:27:54.526Z,101772.16
2018-12-05T03:30:23.069Z,101770.97
2018-12-05T03:32:52.575Z,101773.11
2018-12-05T03:35:25.364Z,101779.94
2018-12-05T03:37:53.928Z,101779.54
2018-12-05T03:40:22.510Z,101776.88
2018-12-05T03:42:51.141Z,101770.53
2018-12-05T03:45:19.916Z,101771.94
2018-12-05T03:47:48.653Z,101767.47
2018-12-05T03:50:17.160Z,101773.59
2018-12-05T03:52:45.677Z,101766.73
2018-12-05T03:55:14.153Z,101768.28
2018-12-05T03:57:42.655Z,101770.22
2018-12-05T04:00:11.294Z,101766.59
2018-12-05T04:02:39.832Z,101763.25
2018-12-05T04:05:08.510Z,101766.98
2018-12-05T04:07:37.050Z,101764.66
2018-12-05T04:10:05.874Z,101763.81
2018-12-05T04:12:40.533Z,101762.37
2018-12-05T04:15:05.480Z,101756.00
2018-12-05T04:17:34.046Z,101760.23
2018-12-05T04:20:02.540Z,101764.83
2018-12-05T04:22:31.236Z,101757.77
2018-12-05T04:24:59.763Z,101757.34
2018-12-05T04:27:28.290Z,101761.14
2018-12-05T04:29:56.838Z,101759.84
2018-12-05T04:32:25.340Z,101759.03
2018-12-05T04:34:53.906Z,101763.75
2018-12-05T04:37:22.490Z,101766.03
2018-12-05T04:39:51.057Z,101773.74
2018-12-05T04:42:19.638Z,101775.81
2018-12-05T04:44:48.113Z,101766.92
2018-12-05T04:47:16.638Z,101773.25
2018-12-05T04:49:45.226Z,101763.93
2018-12-05T04:52:13.717Z,101767.30
2018-12-05T04:54:42.273Z,101769.20
2018-12-05T04:57:10.913Z,101766.98
2018-12-05T04:59:39.435Z,101771.44
2018-12-05T05:02:07.930Z,101764.98
2018-12-05T05:04:36.479Z,101767.30
2018-12-05T05:07:05.002Z,101769.31
2018-12-05T05:09:33.534Z,101770.55
2018-12-05T05:12:03.036Z,101775.08
2018-12-05T05:14:31.531Z,101771.56
2018-12-05T05:17:00.029Z,101778.53
2018-12-05T05:19:28.692Z,101771.03
2018-12-05T05:21:57.178Z,101763.51
2018-12-05T05:24:25.669Z,101764.63
2018-12-05T05:26:54.298Z,101765.52
2018-12-05T05:29:22.893Z,101759.70
2018-12-05T05:31:51.451Z,101764.63
2018-12-05T05:34:19.927Z,101759.28
2018-12-05T05:36:48.558Z,101765.95
2018-12-05T05:39:17.008Z,101771.12
2018-12-05T05:41:45.465Z,101770.55
2018-12-05T05:44:13.948Z,101773.86
2018-12-05T05:46:42.598Z,101768.02
2018-12-05T05:49:11.144Z,101767.00
2018-12-05T05:51:39.695Z,101769.88
2018-12-05T05:54:08.294Z,101768.63
2018-12-05T05:56:36.984Z,101765.07
2018-12-05T05:59:05.476Z,101769.71
2018-12-05T06:01:34.031Z,101767.89
2018-12-05T06:04:02.505Z,101769.44
2018-12-05T06:06:31.013Z,101768.39
2018-12-05T06:08:59.651Z,101763.19
2018-12-05T06:11:28.132Z,101767.66
2018-12-05T06:13:56.624Z,101762.98
2018-12-05T06:16:25.110Z,101757.70
2018-12-05T06:18:53.578Z,101760.66
2018-12-05T06:21:22.100Z,101768.72
2018-12-05T06:23:50.540Z,101763.33
2018-12-05T06:26:19.028Z,101760.75
2018-12-05T06:28:47.566Z,101758.44
2018-12-05T06:31:16.176Z,101762.16
2018-12-05T06:33:44.736Z,101764.69
2018-12-05T06:36:13.191Z,101757.23
2018-12-05T06:38:41.751Z,101757.38
2018-12-05T06:41:10.269Z,101755.03
2018-12-05T06:43:38.698Z,101760.02
2018-12-05T06:46:07.348Z,101757.62
2018-12-05T06:48:35.825Z,101752.78
2018-12-05T06:51:04.435Z,101751.45
2018-12-05T06:53:32.988Z,101753.08
2018-12-05T06:56:01.492Z,101757.27
2018-12-05T06:58:30.013Z,101744.48
2018-12-05T07:00:58.486Z,101749.23
2018-12-05T07:03:26.929Z,101745.54
2018-12-05T07:05:55.576Z,101747.51
2018-12-05T07:08:24.097Z,101748.70
2018-12-05T07:10:52.550Z,101753.37
2018-12-05T07:13:21.139Z,101755.66
2018-12-05T07:15:49.695Z,101760.38
2018-12-05T07:18:18.212Z,101755.17
2018-12-05T07:20:46.701Z,101762.62
2018-12-05T07:23:15.182Z,101753.34
2018-12-05T07:25:43.677Z,101759.73
2018-12-05T07:28:12.176Z,101748.48
2018-12-05T07:30:40.684Z,101742.65
2018-12-05T07:33:09.141Z,101742.44
2018-12-05T07:35:37.701Z,101744.87
2018-12-05T07:38:06.161Z,101748.28
2018-12-05T07:40:34.627Z,101754.02
2018-12-05T07:43:03.308Z,101753.27
2018-12-05T07:45:31.912Z,101760.55
2018-12-05T07:48:00.393Z,101762.84
2018-12-05T07:50:28.983Z,101754.43
2018-12-05T07:52:57.484Z,101759.25
2018-12-05T07:55:25.960Z,101757.04
2018-12-05T07:57:54.520Z,101761.54
2018-12-05T08:00:23.054Z,101755.98
2018-12-05T08:02:51.521Z,101753.02
2018-12-05T08:05:20.054Z,101752.29
2018-12-05T08:07:48.627Z,101748.70
2018-12-05T08:10:17.111Z,101738.08
2018-12-05T08:12:45.652Z,101738.02
2018-12-05T08:15:14.162Z,101733.83
2018-12-05T08:17:42.706Z,101725.74
2018-12-05T08:20:11.207Z,101727.56
2018-12-05T08:22:39.703Z,101722.19
2018-12-05T08:25:08.549Z,101723.56
2018-12-05T08:27:37.052Z,101723.62
2018-12-05T08:30:05.927Z,101708.70
2018-12-05T08:32:34.388Z,101710.28
2018-12-05T08:35:02.935Z,101705.43
2018-12-05T08:37:31.489Z,101707.88
2018-12-05T08:40:00.053Z,101710.24
2018-12-05T08:42:28.600Z,101707.84
2018-12-05T08:45:03.713Z,101699.83
2018-12-05T08:47:33.899Z,101693.37
2018-12-05T08:50:02.527Z,101689.81
2018-12-05T08:52:31.153Z,101694.56
2018-12-05T08:54:59.593Z,101688.52
2018-12-05T08:57:28.135Z,101684.10
2018-12-05T08:59:56.708Z,101682.64
2018-12-05T09:02:25.240Z,101694.59
2018-12-05T09:04:53.720Z,101688.53
2018-12-05T09:07:22.257Z,101680.84
2018-12-05T09:09:50.764Z,101682.47
2018-12-05T09:12:19.239Z,101681.08
2018-12-05T09:14:47.743Z,101672.69
2018-12-05T09:17:16.235Z,101668.78
2018-12-05T09:19:44.703Z,101659.55
2018-12-05T09:22:13.153Z,101654.45
2018-12-05T09:24:41.681Z,101662.49
2018-12-05T09:27:10.157Z,101660.39
2018-12-05T09:29:38.688Z,101655.92
2018-12-05T09:32:07.131Z,101656.83
2018-12-05T09:34:35.721Z,101652.96
2018-12-05T09:37:04.200Z,101655.19
2018-12-05T09:39:32.703Z,101660.55
2018-12-05T09:42:01.368Z,101664.23
2018-12-05T09:44:29.819Z,101662.14
2018-12-05T09:46:58.319Z,101660.31
2018-12-05T09:49:26.883Z,101657.56
2018-12-05T09:51:55.424Z,101649.66
2018-12-05T09:54:23.925Z,101647.70
2018-12-05T09:56:52.592Z,101644.63
2018-12-05T09:59:21.189Z,101639.12
2018-12-05T10:01:49.636Z,101632.38
2018-12-05T10:04:18.135Z,101632.86
2018-12-05T10:06:46.619Z,101624.11
2018-12-05T10:09:15.112Z,101625.83
2018-12-05T10:11:43.743Z,101618.22
2018-12-05T10:14:15.232Z,101608.86
2018-12-05T10:16:43.696Z,101613.02
2018-12-05T10:19:12.231Z,101607.55
2018-12-05T10:21:40.826Z,101609.55
2018-12-05T10:24:09.303Z,101613.02
2018-12-05T10:26:37.935Z,101597.59
2018-12-05T10:29:06.432Z,101577.69
2018-12-05T10:31:35.002Z,101586.44
2018-12-05T10:34:03.585Z,101578.61
2018-12-05T10:36:32.071Z,101567.81
2018-12-05T10:39:00.615Z,101565.80
2018-12-05T10:41:29.138Z,101560.36
2018-12-05T10:43:57.612Z,101562.13
2018-12-05T10:46:26.160Z,101562.51
2018-12-05T10:48:54.656Z,101566.19
2018-12-05T10:51:23.136Z,101557.62
2018-12-05T10:53:51.611Z,101555.85
2018-12-05T10:56:20.318Z,101553.58
2018-12-05T10:58:48.767Z,101549.42
2018-12-05T11:01:22.590Z,101547.27
2018-12-05T11:03:51.082Z,101536.90
2018-12-05T11:06:24.579Z,101539.83
2018-12-05T11:11:04.097Z,101524.00
2018-12-05T11:13:37.750Z,101524.52
2018-12-05T11:16:11.474Z,101526.50
2018-12-05T11:18:45.260Z,101523.59
2018-12-05T11:21:18.834Z,101516.08
2018-12-05T11:23:57.402Z,101509.66
2018-12-05T11:26:27.161Z,101504.55
2018-12-05T11:28:55.681Z,101490.75
2018-12-05T11:31:24.187Z,101489.09
2018-12-05T11:33:52.842Z,101477.45
2018-12-05T11:36:21.297Z,101470.45
2018-12-05T11:38:49.785Z,101471.07
2018-12-05T11:41:18.324Z,101463.32
2018-12-05T11:43:46.836Z,101467.99
2018-12-05T11:46:15.456Z,101460.15
2018-12-05T11:48:43.950Z,101461.06
2018-12-05T11:51:12.449Z,101464.23
2018-12-05T11:53:41.032Z,101456.34
2018-12-05T11:56:09.639Z,101462.52
2018-12-05T11:58:38.144Z,101456.32
2018-12-05T12:01:06.823Z,101450.15
2018-12-05T12:03:35.463Z,101448.47
2018-12-05T12:06:03.993Z,101454.01
2018-12-05T12:08:33.068Z,101460.19
2018-12-05T12:11:03.693Z,101446.33
2018-12-05T12:13:32.194Z,101447.97
2018-12-05T12:16:00.977Z,101450.69
2018-12-05T12:18:29.624Z,101437.42
2018-12-05T12:20:58.119Z,101436.55
2018-12-05T12:23:26.783Z,101428.79
2018-12-05T12:25:55.318Z,101430.05
2018-12-05T12:28:23.790Z,101430.98
2018-12-05T12:30:52.283Z,101426.82
2018-12-05T12:33:20.932Z,101434.16
2018-12-05T12:35:49.481Z,101428.25
2018-12-05T12:38:17.921Z,101415.77
2018-12-05T12:40:46.494Z,101411.55
2018-12-05T12:43:15.002Z,101404.30
2018-12-05T12:45:43.598Z,101400.05
2018-12-05T12:48:12.025Z,101400.17
2018-12-05T12:50:40.584Z,101394.47
2018-12-05T12:53:09.133Z,101391.48
2018-12-05T12:55:37.715Z,101387.47
2018-12-05T12:58:06.239Z,101380.22
2018-12-05T13:00:34.684Z,101385.47
2018-12-05T13:03:03.292Z,101387.14
2018-12-05T13:05:31.743Z,101371.86
2018-12-05T13:08:00.245Z,101366.84
2018-12-05T13:10:28.729Z,101360.35
2018-12-05T13:12:57.302Z,101360.97
2018-12-05T13:15:25.845Z,101349.23
2018-12-05T13:17:54.312Z,101337.67
2018-12-05T13:20:22.824Z,101335.28
2018-12-05T13:22:51.355Z,101329.18
2018-12-05T13:25:20.000Z,101328.95
2018-12-05T13:27:48.497Z,101328.14
2018-12-05T13:30:17.008Z,101324.55
2018-12-05T13:32:45.556Z,101319.54
2018-12-05T13:35:14.226Z,101315.72
2018-12-05T13:37:42.945Z,101309.09
2018-12-05T13:40:11.565Z,101307.86
2018-12-05T13:42:40.140Z,101303.38
2018-12-05T13:45:08.817Z,101298.61
2018-12-05T13:47:37.297Z,101297.86
2018-12-05T13:50:06.485Z,101295.94
2018-12-05T13:52:35.051Z,101294.78
2018-12-05T13:55:03.553Z,101291.55
2018-12-05T13:57:32.310Z,101285.06
2018-12-05T14:00:00.853Z,101282.00
2018-12-05T14:02:29.442Z,101283.00
2018-12-05T14:04:57.969Z,101273.84
2018-12-05T14:07:26.463Z,101269.69
2018-12-05T14:09:54.957Z,101256.13
2018-12-05T14:12:27.680Z,101255.80
2018-12-05T14:14:56.325Z,101249.64
2018-12-05T14:17:24.851Z,101253.18
2018-12-05T14:19:53.388Z,101249.25
2018-12-05T14:22:21.855Z,101249.31
2018-12-05T14:24:50.357Z,101240.09
2018-12-05T14:27:18.897Z,101238.51
2018-12-05T14:29:47.429Z,101235.47
2018-12-05T14:32:15.949Z,101228.70
2018-12-05T14:34:44.512Z,101237.28
2018-12-05T14:37:13.001Z,101225.22
2018-12-05T14:39:41.528Z,101222.39
2018-12-05T14:42:10.009Z,101223.42
2018-12-05T14:44:38.576Z,101212.11
2018-12-05T14:47:07.257Z,101203.17
2018-12-05T14:49:35.799Z,101198.14
2018-12-05T14:52:04.420Z,101191.27
2018-12-05T14:54:32.898Z,101183.97
2018-12-05T14:57:01.414Z,101179.90
2018-12-05T14:59:29.928Z,101174.81
2018-12-05T15:01:58.402Z,101175.00
2018-12-05T15:04:26.932Z,101174.30
2018-12-05T15:06:55.423Z,101169.77
2018-12-05T15:09:23.933Z,101171.16
2018-12-05T15:11:52.516Z,101166.81
2018-12-05T15:14:21.167Z,101159.31
2018-12-05T15:16:49.620Z,101148.29
2018-12-05T15:19:18.271Z,101147.38
2018-12-05T15:21:46.758Z,101146.28
2018-12-05T15:24:15.311Z,101142.28
2018-12-05T15:26:43.845Z,101137.27
2018-12-05T15:29:12.517Z,101126.04
2018-12-05T15:31:41.090Z,101127.61
2018-12-05T15:34:09.611Z,101116.92
2018-12-05T15:36:38.100Z,101110.73
2018-12-05T15:39:07.979Z,101114.05
2018-12-05T15:41:36.595Z,101107.69
2018-12-05T15:44:05.124Z,101099.11
2018-12-05T15:46:33.584Z,101095.72
2018-12-05T15:49:02.098Z,101089.22
2018-12-05T15:51:30.584Z,101078.42
2018-12-05T15:53:59.836Z,101072.82
2018-12-05T15:56:28.417Z,101064.34
2018-12-05T15:58:57.560Z,101060.64
2018-12-05T16:01:26.403Z,101055.55
2018-12-05T16:03:55.106Z,101062.67
2018-12-05T16:06:23.648Z,101058.45
2018-12-05T16:08:53.037Z,101055.50
2018-12-05T16:11:21.628Z,101052.48
2018-12-05T16:13:50.833Z,101050.74
2018-12-05T16:16:19.513Z,101039.35
2018-12-05T16:18:48.066Z,101038.95
2018-12-05T16:21:16.683Z,101032.80
2018-12-05T16:23:45.183Z,101031.02
2018-12-05T16:26:13.846Z,101022.55
2018-12-05T16:28:42.553Z,101016.63
2018-12-05T16:31:11.093Z,101013.53
2018-12-05T16:33:39.665Z,101012.61
2018-12-05T16:36:11.242Z,101004.66
2018-12-05T16:38:38.797Z,101002.67
2018-12-05T16:41:07.463Z,100993.30
2018-12-05T16:43:36.007Z,100997.08
2018-12-05T16:46:04.508Z,100994.60
2018-12-05T16:48:33.048Z,100988.30
2018-12-05T16:51:01.666Z,100985.26
2018-12-05T16:53:30.264Z,100986.74
2018-12-05T16:55:58.725Z,100986.12
2018-12-05T16:58:27.284Z,100979.09
2018-12-05T17:00:55.965Z,100973.91
2018-12-05T17:03:24.446Z,100969.32
2018-12-05T17:05:52.934Z,100957.91
2018-12-05T17:08:21.445Z,100958.05
2018-12-05T17:10:50.009Z,100951.04
2018-12-05T17:13:18.487Z,100955.12
2018-12-05T17:15:47.031Z,100951.57
2018-12-05T17:18:15.587Z,100950.89
2018-12-05T17:20:44.040Z,100946.50
2018-12-05T17:23:12.628Z,100947.48
2018-12-05T17:25:41.084Z,100942.25
2018-12-05T17:28:09.604Z,100941.36
2018-12-05T17:30:38.116Z,100936.28
2018-12-05T17:33:06.660Z,100934.13
2018-12-05T17:35:35.233Z,100935.97
2018-12-05T17:38:03.727Z,100934.73
2018-12-05T17:40:32.224Z,100929.84
2018-12-05T17:43:00.708Z,100929.53
2018-12-05T17:45:29.195Z,100924.19
2018-12-05T17:47:57.661Z,100922.67
2018-12-05T17:50:26.264Z,100906.42
2018-12-05T17:52:54.821Z,100908.89
2018-12-05T17:55:23.388Z,100909.41
2018-12-05T17:57:52.006Z,100906.84
2018-12-05T18:00:20.662Z,100906.08
2018-12-05T18:02:49.133Z,100901.64
2018-12-05T18:05:17.795Z,100893.45
2018-12-05T18:07:46.398Z,100877.09
2018-12-05T18:10:14.976Z,100874.16
2018-12-05T18:12:43.457Z,100872.73
2018-12-05T18:15:12.131Z,100871.58
2018-12-05T18:17:40.641Z,100861.72
2018-12-05T18:20:11.596Z,100856.12
2018-12-05T18:22:40.170Z,100849.45
2018-12-05T18:25:08.749Z,100841.23
2018-12-05T18:27:37.228Z,100830.58
2018-12-05T18:30:07.233Z,100825.02
2018-12-05T18:32:35.691Z,100818.82
2018-12-05T18:35:04.342Z,100824.74
2018-12-05T18:37:32.812Z,100822.80
2018-12-05T18:40:01.426Z,100817.39
2018-12-05T18:42:29.973Z,100817.70
2018-12-05T18:44:58.476Z,100810.71
2018-12-05T18:47:27.118Z,100802.17
2018-12-05T18:49:55.610Z,100808.09
2018-12-05T18:52:24.401Z,100804.83
2018-12-05T18:54:53.135Z,100802.20
2018-12-05T18:57:21.660Z,100800.09
2018-12-05T18:59:50.142Z,100798.59
2018-12-05T19:02:18.671Z,100801.56
2018-12-05T19:04:47.332Z,100796.80
2018-12-05T19:07:16.074Z,100794.17
2018-12-05T19:09:44.576Z,100795.52
2018-12-05T19:12:13.220Z,100795.36
2018-12-05T19:14:46.235Z,100797.85
2018-12-05T19:17:15.087Z,100802.08
2018-12-05T19:19:43.835Z,100812.05
2018-12-05T19:22:12.354Z,100805.38
2018-12-05T19:24:41.095Z,100812.73
2018-12-05T19:27:09.613Z,100807.48
2018-12-05T19:29:38.344Z,100797.44
2018-12-05T19:32:06.949Z,100790.21
2018-12-05T19:34:35.509Z,100790.88
2018-12-05T19:37:04.145Z,100791.91
2018-12-05T19:39:32.616Z,100792.39
2018-12-05T19:42:01.104Z,100788.29
2018-12-05T19:44:29.816Z,100776.45
2018-12-05T19:46:58.299Z,100774.98
2018-12-05T19:49:26.873Z,100774.67
2018-12-05T19:51:55.564Z,100771.72
2018-12-05T19:54:24.178Z,100765.00
2018-12-05T19:56:52.703Z,100769.45
2018-12-05T19:59:21.693Z,100760.11
2018-12-05T20:01:50.219Z,100756.84
2018-12-05T20:04:18.950Z,100758.34
2018-12-05T20:06:47.424Z,100748.65
2018-12-05T20:09:15.907Z,100741.61
2018-12-05T20:11:44.368Z,100747.20
2018-12-05T20:17:01.090Z,100734.75
2018-12-05T20:19:29.762Z,100734.09
2018-12-05T20:21:58.636Z,100724.23
2018-12-05T20:24:27.135Z,100729.19
2018-12-05T20:26:55.761Z,100718.70
2018-12-05T20:29:24.464Z,100718.04
2018-12-05T20:31:53.781Z,100721.14
2018-12-05T20:34:22.610Z,100718.04
2018-12-05T20:36:51.181Z,100706.88
2018-12-05T20:39:25.944Z,100707.05
2018-12-05T20:41:52.577Z,100701.80
2018-12-05T20:44:21.092Z,100695.40
2018-12-05T20:46:49.624Z,100676.37
2018-12-05T20:49:18.123Z,100677.72
2018-12-05T20:51:46.628Z,100678.36
2018-12-05T20:54:15.143Z,100675.09
2018-12-05T20:56:43.693Z,100667.70
2018-12-05T20:59:12.155Z,100658.03
2018-12-05T21:01:40.876Z,100664.61
2018-12-05T21:04:09.424Z,100663.44
2018-12-05T21:06:37.908Z,100651.78
2018-12-05T21:09:08.823Z,100651.45
2018-12-05T21:11:39.328Z,100651.13
2018-12-05T21:14:08.945Z,100645.53
2018-12-05T21:16:37.611Z,100648.84
2018-12-05T21:19:06.265Z,100642.94
2018-12-05T21:21:34.775Z,100641.30
2018-12-05T21:24:03.306Z,100647.55
2018-12-05T21:26:31.820Z,100648.86
2018-12-05T21:29:00.453Z,100645.91
2018-12-05T21:31:29.009Z,100640.14
2018-12-05T21:33:57.474Z,100643.27
2018-12-05T21:36:25.975Z,100624.89
2018-12-05T21:38:54.432Z,100638.05
2018-12-05T21:41:22.921Z,100635.41
2018-12-05T21:43:51.440Z,100633.30
2018-12-05T21:46:20.143Z,100625.58
2018-12-05T21:48:48.613Z,100633.13
2018-12-05T21:51:17.140Z,100626.05
2018-12-05T21:53:45.632Z,100621.65
2018-12-05T21:56:14.147Z,100623.28
2018-12-05T21:58:42.676Z,100624.44
2018-12-05T22:01:11.147Z,100620.66
2018-12-05T22:03:39.689Z,100625.10
2018-12-05T22:06:08.202Z,100616.37
2018-12-05T22:08:36.720Z,100612.30
2018-12-05T22:11:05.316Z,100616.24
2018-12-05T22:13:33.937Z,100621.64
2018-12-05T22:16:02.391Z,100610.48
2018-12-05T22:18:30.872Z,100607.04
2018-12-05T22:20:59.418Z,100610.81
2018-12-05T22:23:28.629Z,100611.95
2018-12-05T22:25:57.181Z,100614.92
2018-12-05T22:28:25.747Z,100610.33
2018-12-05T22:30:54.245Z,100610.97
2018-12-05T22:33:22.777Z,100610.98
2018-12-05T22:35:51.306Z,100613.25
2018-12-05T22:38:20.435Z,100606.86
2018-12-05T22:40:49.009Z,100611.45
2018-12-05T22:43:17.492Z,100610.47
2018-12-05T22:45:46.006Z,100611.30
2018-12-05T22:48:14.545Z,100604.39
2018-12-05T22:50:43.088Z,100602.59
2018-12-05T22:53:11.966Z,100600.13
2018-12-05T22:55:41.177Z,100598.17
2018-12-05T22:58:09.656Z,100596.34
2018-12-05T23:00:38.320Z,100596.34
2018-12-05T23:03:06.828Z,100593.06
2018-12-05T23:05:35.413Z,100586.84
2018-12-05T23:08:03.955Z,100581.73
2018-12-05T23:10:32.779Z,100579.27
2018-12-05T23:13:01.235Z,100585.52
2018-12-05T23:15:29.724Z,100583.87
2018-12-05T23:17:58.261Z,100575.98
2018-12-05T23:20:26.737Z,100566.28
2018-12-05T23:22:55.273Z,100561.38
2018-12-05T23:25:23.820Z,100565.80
2018-12-05T23:27:52.279Z,100565.48
2018-12-05T23:30:20.884Z,100561.20
2018-12-05T23:32:49.508Z,100559.72
2018-12-05T23:35:17.996Z,100562.37
2018-12-05T23:37:46.483Z,100559.58
2018-12-05T23:40:15.092Z,100555.43
2018-12-05T23:42:44.317Z,100553.46
2018-12-05T23:45:12.898Z,100546.06
2018-12-05T23:47:42.048Z,100538.19
2018-12-05T23:50:10.570Z,100530.16
2018-12-05T23:52:39.056Z,100538.19
2018-12-05T23:55:08.404Z,100531.61
2018-12-05T23:57:36.895Z,100536.04
